createdAt,value
2017-10-26T00:00:46.518Z,11.22
2017-10-26T00:01:46.443Z,11.26
2017-10-26T00:02:48.495Z,11.29
2017-10-26T00:03:46.784Z,11.22
2017-10-26T00:04:46.218Z,11.23
2017-10-26T00:05:47.130Z,11.07
2017-10-26T00:06:46.626Z,11.08
2017-10-26T00:07:46.093Z,11.07
2017-10-26T00:08:46.626Z,11.12
2017-10-26T00:09:46.215Z,11.14
2017-10-26T00:10:45.910Z,11.12
2017-10-26T00:11:46.020Z,11.12
2017-10-26T00:12:48.458Z,11.10
2017-10-26T00:13:48.290Z,11.11
2017-10-26T00:14:45.731Z,11.12
2017-10-26T00:15:45.446Z,11.11
2017-10-26T00:16:45.356Z,11.07
2017-10-26T00:17:45.752Z,11.12
2017-10-26T00:18:45.140Z,11.08
2017-10-26T00:19:45.158Z,11.08
2017-10-26T00:20:45.269Z,11.08
2017-10-26T00:21:45.067Z,11.11
2017-10-26T00:22:44.970Z,11.02
2017-10-26T00:23:44.788Z,11.10
2017-10-26T00:24:44.819Z,11.05
2017-10-26T00:25:44.578Z,11.05
2017-10-26T00:26:44.593Z,11.04
2017-10-26T00:27:47.300Z,11.02
2017-10-26T00:28:45.523Z,11.08
2017-10-26T00:29:44.297Z,11.10
2017-10-26T00:30:44.714Z,11.00
2017-10-26T00:31:44.102Z,10.99
2017-10-26T00:32:45.793Z,11.00
2017-10-26T00:33:43.939Z,11.00
2017-10-26T00:34:44.340Z,11.00
2017-10-26T00:35:44.005Z,10.96
2017-10-26T00:36:43.726Z,11.00
2017-10-26T00:37:43.666Z,10.94
2017-10-26T00:38:43.828Z,10.99
2017-10-26T00:39:43.548Z,10.93
2017-10-26T00:40:43.664Z,10.89
2017-10-26T00:41:43.772Z,11.05
2017-10-26T00:42:43.518Z,11.02
2017-10-26T00:43:45.806Z,10.94
2017-10-26T00:44:43.309Z,10.90
2017-10-26T00:45:43.586Z,11.00
2017-10-26T00:46:42.930Z,10.90
2017-10-26T00:47:42.858Z,10.89
2017-10-26T00:48:42.788Z,10.82
2017-10-26T00:49:43.712Z,10.82
2017-10-26T00:50:42.815Z,10.82
2017-10-26T00:51:44.298Z,10.82
2017-10-26T00:52:42.521Z,10.86
2017-10-26T00:53:44.433Z,10.81
2017-10-26T00:54:45.090Z,10.86
2017-10-26T00:55:42.220Z,10.84
2017-10-26T00:56:42.139Z,10.79
2017-10-26T00:57:42.132Z,10.82
2017-10-26T00:58:42.147Z,10.87
2017-10-26T00:59:41.932Z,10.82
2017-10-26T01:00:41.826Z,10.74
2017-10-26T01:01:41.802Z,10.79
2017-10-26T01:02:41.687Z,10.75
2017-10-26T01:03:41.668Z,10.79
2017-10-26T01:04:41.550Z,10.75
2017-10-26T01:05:41.473Z,10.71
2017-10-26T01:06:41.482Z,10.71
2017-10-26T01:07:41.281Z,10.69
2017-10-26T01:08:43.854Z,10.71
2017-10-26T01:09:42.805Z,10.69
2017-10-26T01:10:41.205Z,10.64
2017-10-26T01:11:41.007Z,10.68
2017-10-26T01:12:40.904Z,10.63
2017-10-26T01:13:40.812Z,10.63
2017-10-26T01:14:41.268Z,10.61
2017-10-26T01:15:42.325Z,10.60
2017-10-26T01:16:40.663Z,10.63
2017-10-26T01:17:40.533Z,10.63
2017-10-26T01:18:40.431Z,10.64
2017-10-26T01:19:40.437Z,10.63
2017-10-26T01:20:41.866Z,10.63
2017-10-26T01:21:40.392Z,10.56
2017-10-26T01:22:40.154Z,10.60
2017-10-26T01:23:40.032Z,10.56
2017-10-26T01:24:40.181Z,10.51
2017-10-26T01:25:39.968Z,10.57
2017-10-26T01:26:40.243Z,10.61
2017-10-26T01:27:39.778Z,10.51
2017-10-26T01:28:39.762Z,10.60
2017-10-26T01:29:39.546Z,10.56
2017-10-26T01:30:39.506Z,10.57
2017-10-26T01:31:39.392Z,10.51
2017-10-26T01:32:39.325Z,10.54
2017-10-26T01:33:39.232Z,10.46
2017-10-26T01:34:39.169Z,10.53
2017-10-26T01:35:39.124Z,10.42
2017-10-26T01:36:39.146Z,10.41
2017-10-26T01:37:39.065Z,10.49
2017-10-26T01:38:38.888Z,10.46
2017-10-26T01:39:38.834Z,10.53
2017-10-26T01:40:38.739Z,10.44
2017-10-26T01:41:38.609Z,10.42
2017-10-26T01:42:38.667Z,10.46
2017-10-26T01:43:38.452Z,10.46
2017-10-26T01:44:38.366Z,10.41
2017-10-26T01:45:38.369Z,10.41
2017-10-26T01:46:38.269Z,10.33
2017-10-26T01:47:38.174Z,10.41
2017-10-26T01:48:38.191Z,10.44
2017-10-26T01:49:37.989Z,10.42
2017-10-26T01:50:37.952Z,10.48
2017-10-26T01:51:37.815Z,10.42
2017-10-26T01:52:37.737Z,10.31
2017-10-26T01:53:37.656Z,10.30
2017-10-26T01:54:37.581Z,10.33
2017-10-26T01:55:37.500Z,10.26
2017-10-26T01:56:37.422Z,10.31
2017-10-26T01:57:37.344Z,10.37
2017-10-26T01:58:38.805Z,10.33
2017-10-26T01:59:38.817Z,10.33
2017-10-26T02:00:37.106Z,10.28
2017-10-26T02:01:37.027Z,10.34
2017-10-26T02:02:36.961Z,10.23
2017-10-26T02:03:36.871Z,10.26
2017-10-26T02:04:36.799Z,10.23
2017-10-26T02:05:36.715Z,10.17
2017-10-26T02:06:36.635Z,10.25
2017-10-26T02:07:36.555Z,10.16
2017-10-26T02:08:36.475Z,10.19
2017-10-26T02:09:36.405Z,10.09
2017-10-26T02:10:36.321Z,10.16
2017-10-26T02:11:36.244Z,10.02
2017-10-26T02:12:36.179Z,10.01
2017-10-26T02:13:36.082Z,10.07
2017-10-26T02:14:36.003Z,10.04
2017-10-26T02:15:35.924Z,10.05
2017-10-26T02:16:35.845Z,10.09
2017-10-26T02:17:35.768Z,10.07
2017-10-26T02:18:35.687Z,10.04
2017-10-26T02:19:35.609Z,10.04
2017-10-26T02:20:35.529Z,10.10
2017-10-26T02:21:35.451Z,10.04
2017-10-26T02:22:35.372Z,10.12
2017-10-26T02:23:35.293Z,10.04
2017-10-26T02:24:35.213Z,10.07
2017-10-26T02:25:35.135Z,10.12
2017-10-26T02:26:35.055Z,10.04
2017-10-26T02:27:34.978Z,9.97
2017-10-26T02:28:34.901Z,10.04
2017-10-26T02:29:34.818Z,10.01
2017-10-26T02:30:34.741Z,9.99
2017-10-26T02:31:34.671Z,10.02
2017-10-26T02:32:34.585Z,9.99
2017-10-26T02:33:34.503Z,10.02
2017-10-26T02:34:34.425Z,10.05
2017-10-26T02:35:34.346Z,10.02
2017-10-26T02:36:34.266Z,10.09
2017-10-26T02:37:34.187Z,10.04
2017-10-26T02:38:34.109Z,10.04
2017-10-26T02:39:34.040Z,10.05
2017-10-26T02:40:33.950Z,10.12
2017-10-26T02:41:33.872Z,10.12
2017-10-26T02:42:33.796Z,10.16
2017-10-26T02:43:33.723Z,10.20
2017-10-26T02:44:33.635Z,10.09
2017-10-26T02:45:33.561Z,10.23
2017-10-26T02:46:33.486Z,10.17
2017-10-26T02:47:33.398Z,10.22
2017-10-26T02:48:33.321Z,10.20
2017-10-26T02:49:33.244Z,10.20
2017-10-26T02:50:33.162Z,10.19
2017-10-26T02:51:33.084Z,10.17
2017-10-26T02:52:33.004Z,10.12
2017-10-26T02:53:32.925Z,10.15
2017-10-26T02:54:32.847Z,10.20
2017-10-26T02:55:32.772Z,10.23
2017-10-26T02:56:32.690Z,10.15
2017-10-26T02:57:32.612Z,10.19
2017-10-26T02:58:32.534Z,10.25
2017-10-26T02:59:32.454Z,10.25
2017-10-26T03:00:32.377Z,10.23
2017-10-26T03:01:32.294Z,10.26
2017-10-26T03:02:32.216Z,10.22
2017-10-26T03:03:32.138Z,10.20
2017-10-26T03:04:32.152Z,10.23
2017-10-26T03:05:31.981Z,10.30
2017-10-26T03:06:31.901Z,10.25
2017-10-26T03:07:31.825Z,10.35
2017-10-26T03:08:31.743Z,10.28
2017-10-26T03:09:31.665Z,10.31
2017-10-26T03:10:31.587Z,10.33
2017-10-26T03:11:31.511Z,10.31
2017-10-26T03:12:31.428Z,10.48
2017-10-26T03:13:31.352Z,10.46
2017-10-26T03:14:31.273Z,10.34
2017-10-26T03:15:31.194Z,10.34
2017-10-26T03:16:31.115Z,10.38
2017-10-26T03:17:31.042Z,10.42
2017-10-26T03:18:30.959Z,10.34
2017-10-26T03:19:30.879Z,10.35
2017-10-26T03:20:30.800Z,10.40
2017-10-26T03:21:30.733Z,10.46
2017-10-26T03:22:30.644Z,10.44
2017-10-26T03:23:30.572Z,10.37
2017-10-26T03:24:30.487Z,10.48
2017-10-26T03:25:30.409Z,10.40
2017-10-26T03:26:30.386Z,10.40
2017-10-26T03:27:30.249Z,10.42
2017-10-26T03:28:30.183Z,10.44
2017-10-26T03:29:30.091Z,10.38
2017-10-26T03:30:30.053Z,10.44
2017-10-26T03:31:29.936Z,10.49
2017-10-26T03:32:29.856Z,10.41
2017-10-26T03:33:29.778Z,10.49
2017-10-26T03:34:29.699Z,10.49
2017-10-26T03:35:29.621Z,10.46
2017-10-26T03:36:29.554Z,10.42
2017-10-26T03:37:29.463Z,10.46
2017-10-26T03:38:29.440Z,10.46
2017-10-26T03:39:29.306Z,10.48
2017-10-26T03:40:29.303Z,10.42
2017-10-26T03:41:29.490Z,10.49
2017-10-26T03:42:29.070Z,10.44
2017-10-26T03:43:29.001Z,10.44
2017-10-26T03:44:28.917Z,10.34
2017-10-26T03:45:28.833Z,10.38
2017-10-26T03:46:28.755Z,10.38
2017-10-26T03:47:28.675Z,10.46
2017-10-26T03:48:28.629Z,10.40
2017-10-26T03:49:28.519Z,10.37
2017-10-26T03:50:28.446Z,10.40
2017-10-26T03:51:28.363Z,10.44
2017-10-26T03:52:28.281Z,10.41
2017-10-26T03:53:28.206Z,10.46
2017-10-26T03:54:28.125Z,10.41
2017-10-26T03:55:28.048Z,10.41
2017-10-26T03:56:28.042Z,10.38
2017-10-26T03:57:27.890Z,10.40
2017-10-26T03:58:27.811Z,10.44
2017-10-26T03:59:27.733Z,10.48
2017-10-26T04:00:27.652Z,10.38
2017-10-26T04:01:27.583Z,10.41
2017-10-26T04:02:27.496Z,10.38
2017-10-26T04:03:27.419Z,10.44
2017-10-26T04:04:27.338Z,10.40
2017-10-26T04:05:27.259Z,10.44
2017-10-26T04:06:27.180Z,10.49
2017-10-26T04:07:27.103Z,10.49
2017-10-26T04:08:27.026Z,10.51
2017-10-26T04:09:26.946Z,10.46
2017-10-26T04:10:26.866Z,10.40
2017-10-26T04:11:26.789Z,10.42
2017-10-26T04:12:26.709Z,10.49
2017-10-26T04:13:26.629Z,10.51
2017-10-26T04:14:26.553Z,10.51
2017-10-26T04:15:26.476Z,10.41
2017-10-26T04:16:26.393Z,10.51
2017-10-26T04:17:26.316Z,10.51
2017-10-26T04:18:26.239Z,10.60
2017-10-26T04:19:26.161Z,10.41
2017-10-26T04:20:26.084Z,10.49
2017-10-26T04:21:26.001Z,10.46
2017-10-26T04:22:25.924Z,10.44
2017-10-26T04:23:25.861Z,10.56
2017-10-26T04:24:25.812Z,10.49
2017-10-26T04:25:25.727Z,10.54
2017-10-26T04:26:25.909Z,10.51
2017-10-26T04:27:25.535Z,10.57
2017-10-26T04:28:25.535Z,10.53
2017-10-26T04:29:25.853Z,10.51
2017-10-26T04:30:25.409Z,10.56
2017-10-26T04:31:25.214Z,10.49
2017-10-26T04:32:25.484Z,10.57
2017-10-26T04:33:25.056Z,10.56
2017-10-26T04:34:25.170Z,10.59
2017-10-26T04:35:24.980Z,10.61
2017-10-26T04:36:24.950Z,10.61
2017-10-26T04:37:24.900Z,10.69
2017-10-26T04:38:24.671Z,10.69
2017-10-26T04:39:24.612Z,10.64
2017-10-26T04:40:24.714Z,10.64
2017-10-26T04:41:24.516Z,10.67
2017-10-26T04:42:24.407Z,10.69
2017-10-26T04:43:24.280Z,10.68
2017-10-26T04:44:24.221Z,10.78
2017-10-26T04:45:24.121Z,10.68
2017-10-26T04:46:24.070Z,10.78
2017-10-26T04:47:24.031Z,10.72
2017-10-26T04:48:23.921Z,10.67
2017-10-26T04:49:23.839Z,10.75
2017-10-26T04:50:23.870Z,10.69
2017-10-26T04:51:23.766Z,10.74
2017-10-26T04:52:23.576Z,10.74
2017-10-26T04:53:23.502Z,10.68
2017-10-26T04:54:23.488Z,10.76
2017-10-26T04:55:23.358Z,10.72
2017-10-26T04:56:23.355Z,10.72
2017-10-26T04:57:23.385Z,10.75
2017-10-26T04:58:23.108Z,10.71
2017-10-26T04:59:23.620Z,10.75
2017-10-26T05:00:23.000Z,10.72
2017-10-26T05:01:22.905Z,10.79
2017-10-26T05:02:22.811Z,10.76
2017-10-26T05:03:22.711Z,10.72
2017-10-26T05:04:22.934Z,10.78
2017-10-26T05:05:22.634Z,10.81
2017-10-26T05:06:22.632Z,10.74
2017-10-26T05:07:22.563Z,10.82
2017-10-26T05:08:22.480Z,10.76
2017-10-26T05:09:22.234Z,10.82
2017-10-26T05:10:22.314Z,10.82
2017-10-26T05:11:22.145Z,10.84
2017-10-26T05:12:22.046Z,10.78
2017-10-26T05:13:22.061Z,10.81
2017-10-26T05:14:22.170Z,10.84
2017-10-26T05:15:21.876Z,10.90
2017-10-26T05:16:21.859Z,10.82
2017-10-26T05:17:21.689Z,10.89
2017-10-26T05:18:21.546Z,10.90
2017-10-26T05:19:21.541Z,10.82
2017-10-26T05:20:21.395Z,10.84
2017-10-26T05:21:21.302Z,10.89
2017-10-26T05:22:21.332Z,10.94
2017-10-26T05:23:21.206Z,10.93
2017-10-26T05:24:21.228Z,10.93
2017-10-26T05:25:21.114Z,10.96
2017-10-26T05:26:20.937Z,10.96
2017-10-26T05:27:20.908Z,11.00
2017-10-26T05:28:20.832Z,11.02
2017-10-26T05:29:20.760Z,10.99
2017-10-26T05:30:20.642Z,10.84
2017-10-26T05:31:20.654Z,11.00
2017-10-26T05:32:20.454Z,10.97
2017-10-26T05:33:20.545Z,10.99
2017-10-26T05:34:20.342Z,10.89
2017-10-26T05:35:20.225Z,10.96
2017-10-26T05:36:20.182Z,10.84
2017-10-26T05:37:20.089Z,10.94
2017-10-26T05:38:20.045Z,10.94
2017-10-26T05:39:20.040Z,10.84
2017-10-26T05:40:19.889Z,10.97
2017-10-26T05:41:19.796Z,10.96
2017-10-26T05:42:19.989Z,10.97
2017-10-26T05:43:19.569Z,10.96
2017-10-26T05:44:19.505Z,10.97
2017-10-26T05:45:19.424Z,10.93
2017-10-26T05:46:19.414Z,10.87
2017-10-26T05:47:19.321Z,10.84
2017-10-26T05:48:19.459Z,10.96
2017-10-26T05:49:19.193Z,10.93
2017-10-26T05:50:19.025Z,10.93
2017-10-26T05:51:19.042Z,10.87
2017-10-26T05:52:18.865Z,11.00
2017-10-26T05:53:19.051Z,10.93
2017-10-26T05:54:18.716Z,10.96
2017-10-26T05:55:18.689Z,10.86
2017-10-26T05:56:18.613Z,10.96
2017-10-26T05:57:18.791Z,10.93
2017-10-26T05:58:18.403Z,10.96
2017-10-26T05:59:18.378Z,10.89
2017-10-26T06:00:18.398Z,11.02
2017-10-26T06:01:18.190Z,11.00
2017-10-26T06:02:18.206Z,10.96
2017-10-26T06:03:18.003Z,11.00
2017-10-26T06:04:18.010Z,11.00
2017-10-26T06:05:17.860Z,11.07
2017-10-26T06:06:17.872Z,11.05
2017-10-26T06:07:17.699Z,11.11
2017-10-26T06:08:17.936Z,11.07
2017-10-26T06:09:17.629Z,11.15
2017-10-26T06:10:17.643Z,11.12
2017-10-26T06:11:17.472Z,11.23
2017-10-26T06:12:17.455Z,11.19
2017-10-26T06:13:17.329Z,11.18
2017-10-26T06:14:17.776Z,11.19
2017-10-26T06:15:17.066Z,11.19
2017-10-26T06:16:17.173Z,11.17
2017-10-26T06:17:17.087Z,11.22
2017-10-26T06:18:16.833Z,11.30
2017-10-26T06:19:16.898Z,11.25
2017-10-26T06:20:17.024Z,11.29
2017-10-26T06:21:16.827Z,11.19
2017-10-26T06:22:16.728Z,11.26
2017-10-26T06:23:16.700Z,11.25
2017-10-26T06:24:16.395Z,11.25
2017-10-26T06:25:16.287Z,11.19
2017-10-26T06:26:16.233Z,11.18
2017-10-26T06:27:16.213Z,11.23
2017-10-26T06:28:18.887Z,11.23
2017-10-26T06:29:16.147Z,11.32
2017-10-26T06:30:15.995Z,11.40
2017-10-26T06:31:16.227Z,11.29
2017-10-26T06:32:15.744Z,11.47
2017-10-26T06:33:15.777Z,11.44
2017-10-26T06:34:15.745Z,11.45
2017-10-26T06:35:15.549Z,11.45
2017-10-26T06:36:15.758Z,11.47
2017-10-26T06:37:15.378Z,11.44
2017-10-26T06:38:15.422Z,11.44
2017-10-26T06:39:15.379Z,11.45
2017-10-26T06:40:15.119Z,11.47
2017-10-26T06:41:15.162Z,11.44
2017-10-26T06:42:15.029Z,11.50
2017-10-26T06:43:14.903Z,11.43
2017-10-26T06:44:14.805Z,11.43
2017-10-26T06:45:14.797Z,11.44
2017-10-26T06:46:14.697Z,11.44
2017-10-26T06:47:14.574Z,11.54
2017-10-26T06:48:14.492Z,11.50
2017-10-26T06:49:14.428Z,11.57
2017-10-26T06:50:14.396Z,11.54
2017-10-26T06:51:14.329Z,11.52
2017-10-26T06:52:14.345Z,11.55
2017-10-26T06:53:14.141Z,11.60
2017-10-26T06:54:14.143Z,11.55
2017-10-26T06:55:13.960Z,11.54
2017-10-26T06:56:13.932Z,11.57
2017-10-26T06:57:13.848Z,11.63
2017-10-26T06:58:13.766Z,11.59
2017-10-26T06:59:13.656Z,11.62
2017-10-26T07:00:13.707Z,11.59
2017-10-26T07:01:13.485Z,11.66
2017-10-26T07:02:13.480Z,11.62
2017-10-26T07:03:13.392Z,11.68
2017-10-26T07:04:13.284Z,11.65
2017-10-26T07:05:13.164Z,11.68
2017-10-26T07:06:14.091Z,11.66
2017-10-26T07:07:14.018Z,11.75
2017-10-26T07:08:13.012Z,11.75
2017-10-26T07:09:12.884Z,11.78
2017-10-26T07:10:12.818Z,11.72
2017-10-26T07:11:12.717Z,11.75
2017-10-26T07:12:12.627Z,11.73
2017-10-26T07:13:12.993Z,11.65
2017-10-26T07:14:14.659Z,11.69
2017-10-26T07:15:13.948Z,11.73
2017-10-26T07:16:12.342Z,11.78
2017-10-26T07:17:12.247Z,11.73
2017-10-26T07:18:12.182Z,11.75
2017-10-26T07:19:12.164Z,11.81
2017-10-26T07:20:12.019Z,11.75
2017-10-26T07:21:11.931Z,11.81
2017-10-26T07:22:11.879Z,11.80
2017-10-26T07:23:11.880Z,11.78
2017-10-26T07:24:11.687Z,11.88
2017-10-26T07:25:11.635Z,11.90
2017-10-26T07:26:13.402Z,11.95
2017-10-26T07:27:13.413Z,11.81
2017-10-26T07:28:11.395Z,11.99
2017-10-26T07:29:11.307Z,11.99
2017-10-26T07:30:11.314Z,12.00
2017-10-26T07:31:11.226Z,11.97
2017-10-26T07:32:11.184Z,12.06
2017-10-26T07:33:12.935Z,12.06
2017-10-26T07:34:11.147Z,12.04
2017-10-26T07:35:10.873Z,12.03
2017-10-26T07:36:10.757Z,12.03
2017-10-26T07:37:10.694Z,12.04
2017-10-26T07:38:10.673Z,12.06
2017-10-26T07:39:10.556Z,12.02
2017-10-26T07:40:10.461Z,12.07
2017-10-26T07:41:10.377Z,12.07
2017-10-26T07:42:10.401Z,12.10
2017-10-26T07:43:10.240Z,12.04
2017-10-26T07:44:10.182Z,12.03
2017-10-26T07:45:10.261Z,12.12
2017-10-26T07:46:09.987Z,12.00
2017-10-26T07:47:09.988Z,12.09
2017-10-26T07:48:09.829Z,12.07
2017-10-26T07:49:09.750Z,12.06
2017-10-26T07:50:09.937Z,12.09
2017-10-26T07:51:09.599Z,12.17
2017-10-26T07:52:09.816Z,12.18
2017-10-26T07:53:09.634Z,12.13
2017-10-26T07:54:09.372Z,12.07
2017-10-26T07:55:09.332Z,12.02
2017-10-26T07:56:09.236Z,12.00
2017-10-26T07:57:09.139Z,11.97
2017-10-26T07:58:09.093Z,12.00
2017-10-26T07:59:09.033Z,11.97
2017-10-26T08:00:08.896Z,12.04
2017-10-26T08:01:08.886Z,12.03
2017-10-26T08:02:08.753Z,12.03
2017-10-26T08:03:08.672Z,12.07
2017-10-26T08:04:08.598Z,12.10
2017-10-26T08:05:08.578Z,12.12
2017-10-26T08:06:08.435Z,12.15
2017-10-26T08:07:08.537Z,12.12
2017-10-26T08:08:08.313Z,12.17
2017-10-26T08:09:08.202Z,12.09
2017-10-26T08:10:08.127Z,12.10
2017-10-26T08:11:08.104Z,11.99
2017-10-26T08:12:07.969Z,11.99
2017-10-26T08:13:07.948Z,11.99
2017-10-26T08:14:07.974Z,12.09
2017-10-26T08:15:07.737Z,11.97
2017-10-26T08:16:07.656Z,12.10
2017-10-26T08:17:07.643Z,12.10
2017-10-26T08:18:07.506Z,12.15
2017-10-26T08:19:08.426Z,12.18
2017-10-26T08:20:07.577Z,12.24
2017-10-26T08:21:07.271Z,12.25
2017-10-26T08:22:07.202Z,12.27
2017-10-26T08:23:07.165Z,12.32
2017-10-26T08:24:07.040Z,12.31
2017-10-26T08:25:06.964Z,12.39
2017-10-26T08:26:06.885Z,12.40
2017-10-26T08:27:06.807Z,12.43
2017-10-26T08:28:06.883Z,12.49
2017-10-26T08:29:06.654Z,12.53
2017-10-26T08:30:06.577Z,12.54
2017-10-26T08:31:06.501Z,12.55
2017-10-26T08:32:06.420Z,12.53
2017-10-26T08:33:06.352Z,12.67
2017-10-26T08:34:06.269Z,12.67
2017-10-26T08:35:06.190Z,12.68
2017-10-26T08:36:06.111Z,12.62
2017-10-26T08:37:06.036Z,12.68
2017-10-26T08:38:05.980Z,12.67
2017-10-26T08:39:05.891Z,12.65
2017-10-26T08:40:05.804Z,12.53
2017-10-26T08:41:05.728Z,12.70
2017-10-26T08:42:05.656Z,12.62
2017-10-26T08:43:05.575Z,12.70
2017-10-26T08:44:05.497Z,12.64
2017-10-26T08:45:05.420Z,12.67
2017-10-26T08:46:05.346Z,12.67
2017-10-26T08:47:05.269Z,12.60
2017-10-26T08:48:05.189Z,12.60
2017-10-26T08:49:05.111Z,12.64
2017-10-26T08:50:05.034Z,12.70
2017-10-26T08:51:04.958Z,12.62
2017-10-26T08:52:04.882Z,12.61
2017-10-26T08:53:04.802Z,12.68
2017-10-26T08:54:04.726Z,12.65
2017-10-26T08:55:04.648Z,12.67
2017-10-26T08:56:04.588Z,12.67
2017-10-26T08:57:04.497Z,12.62
2017-10-26T08:58:04.419Z,12.68
2017-10-26T08:59:04.343Z,12.70
2017-10-26T09:00:04.263Z,12.73
2017-10-26T09:01:04.186Z,12.72
2017-10-26T09:02:04.111Z,12.67
2017-10-26T09:03:04.034Z,12.75
2017-10-26T09:04:03.956Z,12.82
2017-10-26T09:05:03.879Z,12.91
2017-10-26T09:06:03.802Z,12.70
2017-10-26T09:07:03.725Z,12.80
2017-10-26T09:08:03.652Z,12.72
2017-10-26T09:09:03.573Z,12.86
2017-10-26T09:10:03.495Z,12.87
2017-10-26T09:11:03.418Z,12.83
2017-10-26T09:12:03.340Z,12.90
2017-10-26T09:13:03.264Z,12.83
2017-10-26T09:14:03.186Z,12.90
2017-10-26T09:15:03.109Z,12.95
2017-10-26T09:16:03.034Z,12.91
2017-10-26T09:17:02.956Z,13.03
2017-10-26T09:18:02.879Z,12.93
2017-10-26T09:19:02.803Z,12.95
2017-10-26T09:20:02.744Z,12.95
2017-10-26T09:21:02.649Z,13.09
2017-10-26T09:22:02.572Z,13.01
2017-10-26T09:23:02.496Z,13.09
2017-10-26T09:24:02.418Z,13.13
2017-10-26T09:25:02.341Z,13.13
2017-10-26T09:26:02.267Z,13.11
2017-10-26T09:27:02.249Z,13.12
2017-10-26T09:28:02.113Z,13.20
2017-10-26T09:29:02.036Z,13.15
2017-10-26T09:30:01.958Z,13.13
2017-10-26T09:31:01.883Z,13.16
2017-10-26T09:32:01.804Z,13.13
2017-10-26T09:33:01.729Z,13.16
2017-10-26T09:34:01.654Z,13.31
2017-10-26T09:35:01.576Z,13.22
2017-10-26T09:36:01.515Z,13.20
2017-10-26T09:37:01.421Z,13.18
2017-10-26T09:38:01.344Z,13.22
2017-10-26T09:39:01.270Z,13.19
2017-10-26T09:40:01.192Z,13.25
2017-10-26T09:41:01.115Z,13.33
2017-10-26T09:42:01.039Z,13.28
2017-10-26T09:43:00.966Z,13.31
2017-10-26T09:44:00.905Z,13.27
2017-10-26T09:45:00.867Z,13.19
2017-10-26T09:46:00.736Z,13.22
2017-10-26T09:47:00.657Z,13.33
2017-10-26T09:48:00.579Z,13.35
2017-10-26T09:49:00.503Z,13.44
2017-10-26T09:50:00.426Z,13.44
2017-10-26T09:51:00.354Z,13.44
2017-10-26T09:52:00.272Z,13.52
2017-10-26T09:53:00.197Z,13.42
2017-10-26T09:54:00.121Z,13.42
2017-10-26T09:55:00.043Z,13.44
2017-10-26T09:55:59.965Z,13.52
2017-10-26T09:56:59.889Z,13.44
2017-10-26T09:57:59.815Z,13.53
2017-10-26T09:58:59.737Z,13.57
2017-10-26T09:59:59.660Z,13.57
2017-10-26T10:00:59.585Z,13.52
2017-10-26T10:01:59.508Z,13.57
2017-10-26T10:02:59.433Z,13.57
2017-10-26T10:03:59.354Z,13.59
2017-10-26T10:04:59.280Z,13.54
2017-10-26T10:05:59.204Z,13.62
2017-10-26T10:06:59.129Z,13.56
2017-10-26T10:07:59.067Z,13.60
2017-10-26T10:08:58.974Z,13.63
2017-10-26T10:09:58.907Z,13.53
2017-10-26T10:10:58.821Z,13.56
2017-10-26T10:11:58.787Z,13.53
2017-10-26T10:12:58.669Z,13.53
2017-10-26T10:13:58.594Z,13.56
2017-10-26T10:14:58.515Z,13.60
2017-10-26T10:15:58.442Z,13.56
2017-10-26T10:16:58.419Z,13.59
2017-10-26T10:17:58.287Z,13.74
2017-10-26T10:18:58.210Z,13.75
2017-10-26T10:19:58.134Z,13.81
2017-10-26T10:20:58.060Z,13.79
2017-10-26T10:21:57.982Z,13.75
2017-10-26T10:22:57.907Z,13.81
2017-10-26T10:23:57.829Z,13.78
2017-10-26T10:24:57.753Z,13.85
2017-10-26T10:25:57.678Z,13.92
2017-10-26T10:26:57.599Z,13.92
2017-10-26T10:27:57.522Z,13.89
2017-10-26T10:28:57.448Z,13.92
2017-10-26T10:29:57.382Z,13.93
2017-10-26T10:30:57.296Z,14.07
2017-10-26T10:31:57.224Z,14.03
2017-10-26T10:32:57.145Z,14.05
2017-10-26T10:33:57.068Z,14.08
2017-10-26T10:34:56.993Z,14.08
2017-10-26T10:35:56.916Z,14.10
2017-10-26T10:36:56.840Z,14.14
2017-10-26T10:37:56.764Z,14.14
2017-10-26T10:38:56.690Z,14.15
2017-10-26T10:39:56.611Z,14.20
2017-10-26T10:40:56.537Z,14.12
2017-10-26T10:41:56.461Z,14.14
2017-10-26T10:42:56.386Z,14.12
2017-10-26T10:43:56.309Z,14.22
2017-10-26T10:44:56.233Z,14.28
2017-10-26T10:45:56.157Z,14.17
2017-10-26T10:46:56.082Z,14.30
2017-10-26T10:47:56.072Z,14.23
2017-10-26T10:48:55.969Z,14.29
2017-10-26T10:49:55.945Z,14.29
2017-10-26T10:50:55.803Z,14.35
2017-10-26T10:51:55.762Z,14.32
2017-10-26T10:52:55.627Z,14.28
2017-10-26T10:53:55.594Z,14.32
2017-10-26T10:54:55.476Z,14.36
2017-10-26T10:55:55.515Z,14.43
2017-10-26T10:56:55.334Z,14.37
2017-10-26T10:57:55.250Z,14.36
2017-10-26T10:58:55.205Z,14.40
2017-10-26T10:59:55.098Z,14.47
2017-10-26T11:00:55.093Z,14.48
2017-10-26T11:01:54.948Z,14.48
2017-10-26T11:02:55.041Z,14.47
2017-10-26T11:03:54.860Z,14.54
2017-10-26T11:04:54.969Z,14.54
2017-10-26T11:05:54.779Z,14.60
2017-10-26T11:06:54.576Z,14.65
2017-10-26T11:07:54.552Z,14.65
2017-10-26T11:08:54.486Z,14.73
2017-10-26T11:09:54.370Z,14.77
2017-10-26T11:10:54.302Z,14.82
2017-10-26T11:11:54.216Z,14.79
2017-10-26T11:12:54.290Z,14.79
2017-10-26T11:13:54.068Z,14.91
2017-10-26T11:14:53.977Z,14.85
2017-10-26T11:15:54.003Z,14.89
2017-10-26T11:16:53.825Z,14.91
2017-10-26T11:17:53.806Z,14.84
2017-10-26T11:18:53.739Z,14.97
2017-10-26T11:19:53.595Z,14.92
2017-10-26T11:20:53.535Z,14.97
2017-10-26T11:21:53.599Z,14.99
2017-10-26T11:22:53.373Z,14.94
2017-10-26T11:23:53.290Z,14.92
2017-10-26T11:24:53.249Z,14.92
2017-10-26T11:25:53.147Z,14.88
2017-10-26T11:26:53.077Z,14.89
2017-10-26T11:27:53.068Z,14.89
2017-10-26T11:28:52.982Z,14.86
2017-10-26T11:29:52.846Z,14.91
2017-10-26T11:30:52.807Z,14.82
2017-10-26T11:31:52.696Z,14.91
2017-10-26T11:32:52.710Z,14.85
2017-10-26T11:33:52.589Z,14.77
2017-10-26T11:34:52.472Z,14.82
2017-10-26T11:35:52.422Z,14.77
2017-10-26T11:36:52.364Z,14.85
2017-10-26T11:37:52.311Z,14.78
2017-10-26T11:38:52.224Z,14.73
2017-10-26T11:39:52.122Z,14.79
2017-10-26T11:40:52.021Z,14.66
2017-10-26T11:41:51.941Z,14.72
2017-10-26T11:42:51.869Z,14.73
2017-10-26T11:43:51.810Z,14.79
2017-10-26T11:44:51.714Z,14.72
2017-10-26T11:45:51.644Z,14.81
2017-10-26T11:46:51.578Z,14.73
2017-10-26T11:47:51.563Z,14.86
2017-10-26T11:48:51.415Z,14.85
2017-10-26T11:49:51.366Z,14.94
2017-10-26T11:50:51.270Z,14.91
2017-10-26T11:51:51.188Z,14.85
2017-10-26T11:52:51.182Z,14.91
2017-10-26T11:53:51.119Z,14.85
2017-10-26T11:54:50.988Z,14.89
2017-10-26T11:55:50.899Z,14.88
2017-10-26T11:56:50.818Z,14.99
2017-10-26T11:57:50.827Z,14.85
2017-10-26T11:58:50.710Z,14.92
2017-10-26T11:59:50.612Z,15.03
2017-10-26T12:00:50.526Z,15.51
2017-10-26T12:01:50.511Z,15.98
2017-10-26T12:02:50.430Z,15.77
2017-10-26T12:03:50.339Z,15.75
2017-10-26T12:04:50.269Z,16.00
2017-10-26T12:05:50.192Z,15.97
2017-10-26T12:06:50.066Z,16.05
2017-10-26T12:07:50.059Z,16.04
2017-10-26T12:08:50.145Z,16.21
2017-10-26T12:09:49.844Z,16.16
2017-10-26T12:10:49.974Z,16.08
2017-10-26T12:11:49.705Z,15.92
2017-10-26T12:12:49.680Z,15.97
2017-10-26T12:13:49.794Z,15.95
2017-10-26T12:14:49.476Z,15.90
2017-10-26T12:15:49.400Z,15.98
2017-10-26T12:16:49.345Z,16.28
2017-10-26T12:17:49.353Z,16.24
2017-10-26T12:18:49.186Z,16.31
2017-10-26T12:19:49.131Z,16.24
2017-10-26T12:20:49.128Z,16.17
2017-10-26T12:21:49.125Z,16.16
2017-10-26T12:22:48.895Z,16.13
2017-10-26T12:23:48.883Z,16.10
2017-10-26T12:24:48.864Z,16.16
2017-10-26T12:25:48.741Z,16.17
2017-10-26T12:26:48.653Z,16.15
2017-10-26T12:27:48.874Z,16.10
2017-10-26T12:28:48.460Z,15.95
2017-10-26T12:29:48.577Z,15.94
2017-10-26T12:30:48.390Z,16.00
2017-10-26T12:31:48.422Z,15.98
2017-10-26T12:32:48.194Z,15.88
2017-10-26T12:33:48.107Z,15.98
2017-10-26T12:34:48.002Z,16.13
2017-10-26T12:35:48.531Z,16.21
2017-10-26T12:36:47.894Z,16.46
2017-10-26T12:37:47.800Z,16.58
2017-10-26T12:38:47.709Z,16.47
2017-10-26T12:39:47.663Z,16.39
2017-10-26T12:40:47.930Z,16.31
2017-10-26T12:41:48.030Z,16.28
2017-10-26T12:42:47.434Z,16.26
2017-10-26T12:43:47.438Z,16.17
2017-10-26T12:44:47.363Z,16.12
2017-10-26T12:45:47.354Z,16.04
2017-10-26T12:46:47.250Z,16.05
2017-10-26T12:47:47.048Z,15.98
2017-10-26T12:48:47.164Z,15.98
2017-10-26T12:49:47.068Z,15.91
2017-10-26T12:50:46.994Z,15.98
2017-10-26T12:51:46.981Z,16.04